Time,TemperatureF,DewpointF,PressureIn,WindDirection,WindDirectionDegrees,WindSpeedMPH,WindSpeedGustMPH,Humidity,HourlyPrecipIn,Conditions,Clouds,dailyrainin,SoftwareType,DateUTC
2013-03-25 00:23:00,35.0,25.0,29.92,East,90,7.0,12.0,66,0.00,,,0.00,,2013-03-25 00:23:00,
2013-03-25 00:33:00,35.0,25.0,29.92,SE,125,9.0,13.0,67,0.00,,,0.00,,2013-03-25 00:33:00,
2013-03-25 00:43:00,35.0,25.0,29.92,SE,125,9.0,13.0,67,0.00,,,0.00,,2013-03-25 00:43:00,
2013-03-25 00:52:00,35.0,25.0,29.92,SE,140,6.0,15.0,67,0.00,,,0.00,,2013-03-25 00:52:00,
2013-03-25 01:01:00,35.0,25.0,29.92,SE,140,6.0,17.0,66,0.00,,,0.00,,2013-03-25 01:01:00,
2013-03-25 01:11:00,35.0,25.0,29.92,SE,140,6.0,17.0,66,0.00,,,0.00,,2013-03-25 01:11:00,
2013-03-25 01:21:00,35.0,24.0,29.92,ESE,105,9.0,17.0,65,0.00,,,0.00,,2013-03-25 01:21:00,
2013-03-25 01:32:00,35.0,24.0,29.92,ESE,105,9.0,17.0,65,0.00,,,0.00,,2013-03-25 01:32:00,
2013-03-25 01:42:00,35.0,24.0,29.92,ESE,105,9.0,17.0,65,0.00,,,0.00,,2013-03-25 01:42:00,
2013-03-25 01:52:00,35.0,24.0,29.91,SE,141,11.0,18.0,65,0.00,,,0.00,,2013-03-25 01:52:00,
2013-03-25 02:01:00,34.0,23.0,29.91,ESE,117,12.0,20.0,65,0.00,,,0.00,,2013-03-25 02:01:00,
2013-03-25 02:11:00,34.0,23.0,29.91,ESE,117,12.0,20.0,65,0.00,,,0.00,,2013-03-25 02:11:00,
2013-03-25 02:22:00,34.0,24.0,29.91,ESE,109,7.0,16.0,66,0.00,,,0.00,,2013-03-25 02:22:00,
2013-03-25 02:32:00,34.0,24.0,29.91,ESE,109,7.0,16.0,66,0.00,,,0.00,,2013-03-25 02:32:00,
2013-03-25 02:42:00,34.0,24.0,29.91,ESE,109,7.0,16.0,66,0.00,,,0.00,,2013-03-25 02:42:00,
2013-03-25 02:52:00,34.0,24.0,29.91,SE,125,9.0,18.0,67,0.00,,,0.00,,2013-03-25 02:52:00,
2013-03-25 03:01:00,34.0,24.0,29.91,SE,140,8.0,18.0,67,0.00,,,0.00,,2013-03-25 03:01:00,
2013-03-25 03:12:00,34.0,24.0,29.91,SE,140,8.0,18.0,67,0.00,,,0.00,,2013-03-25 03:12:00,
2013-03-25 03:22:00,34.0,24.0,29.92,SSE,163,10.0,18.0,67,0.00,,,0.00,,2013-03-25 03:22:00,
2013-03-25 03:33:00,34.0,24.0,29.92,East,86,10.0,18.0,67,0.00,,,0.00,,2013-03-25 03:33:00,
2013-03-25 03:42:00,34.0,24.0,29.92,ESE,103,8.0,14.0,67,0.00,,,0.00,,2013-03-25 03:42:00,
2013-03-25 03:53:00,34.0,24.0,29.92,ESE,103,8.0,14.0,67,0.00,,,0.00,,2013-03-25 03:53:00,
2013-03-25 04:02:00,34.0,24.0,29.92,ESE,121,7.0,21.0,67,0.00,,,0.00,,2013-03-25 04:02:00,
2013-03-25 04:12:00,34.0,24.0,29.92,ESE,121,7.0,21.0,67,0.00,,,0.00,,2013-03-25 04:12:00,
2013-03-25 04:22:00,34.0,24.0,29.92,ESE,114,8.0,20.0,67,0.00,,,0.00,,2013-03-25 04:22:00,
2013-03-25 04:32:00,34.0,24.0,29.92,ESE,114,8.0,20.0,67,0.00,,,0.00,,2013-03-25 04:32:00,
2013-03-25 04:42:00,34.0,24.0,29.92,ESE,114,8.0,20.0,67,0.00,,,0.00,,2013-03-25 04:42:00,
2013-03-25 04:52:00,34.0,25.0,29.92,ESE,117,9.0,15.0,68,0.00,,,0.00,,2013-03-25 04:52:00,
2013-03-25 05:02:00,33.0,24.0,29.92,ESE,107,9.0,20.0,68,0.00,,,0.00,,2013-03-25 05:02:00,
2013-03-25 05:12:00,33.0,24.0,29.92,ESE,107,9.0,20.0,68,0.00,,,0.00,,2013-03-25 05:12:00,
2013-03-25 05:22:00,33.0,24.0,29.92,ESE,107,9.0,20.0,68,0.00,,,0.00,,2013-03-25 05:22:00,
2013-03-25 05:31:00,33.0,24.0,29.93,SE,128,9.0,17.0,70,0.00,,,0.00,,2013-03-25 05:31:00,
2013-03-25 05:32:00,33.0,24.0,29.93,SE,127,9.0,21.0,69,0.00,,,0.00,,2013-03-25 05:32:00,
2013-03-25 05:42:00,33.0,24.0,29.93,SE,127,9.0,21.0,69,0.00,,,0.00,,2013-03-25 05:42:00,
2013-03-25 05:52:00,33.0,24.0,29.93,SE,128,9.0,17.0,70,0.00,,,0.00,,2013-03-25 05:52:00,
2013-03-25 06:02:00,33.0,24.0,29.93,SE,128,9.0,17.0,70,0.00,,,0.00,,2013-03-25 06:02:00,
2013-03-25 06:11:00,33.0,24.0,29.93,SE,128,9.0,17.0,70,0.00,,,0.00,,2013-03-25 06:11:00,
2013-03-25 06:21:00,33.0,24.0,29.93,SE,128,9.0,17.0,70,0.00,,,0.00,,2013-03-25 06:21:00,
2013-03-25 07:01:00,33.0,25.0,29.94,SE,129,12.0,20.0,71,0.00,,,0.00,,2013-03-25 07:01:00,
2013-03-25 07:22:00,33.0,25.0,29.94,SE,129,12.0,20.0,71,0.00,,,0.00,,2013-03-25 07:22:00,
2013-03-25 07:32:00,33.0,25.0,29.94,SE,129,12.0,20.0,71,0.00,,,0.00,,2013-03-25 07:32:00,
2013-03-25 07:42:00,33.0,25.0,29.94,SE,129,12.0,20.0,71,0.00,,,0.00,,2013-03-25 07:42:00,
2013-03-25 07:52:00,33.0,25.0,29.94,SE,129,12.0,20.0,71,0.00,,,0.00,,2013-03-25 07:52:00,
2013-03-25 08:22:00,33.0,25.0,29.94,SE,137,8.0,22.0,72,0.00,,,0.00,,2013-03-25 08:22:00,
2013-03-25 08:32:00,33.0,25.0,29.95,ESE,114,12.0,20.0,72,0.00,,,0.00,,2013-03-25 08:32:00,
2013-03-25 08:42:00,33.0,25.0,29.95,ESE,114,12.0,20.0,72,0.00,,,0.00,,2013-03-25 08:42:00,
2013-03-25 08:52:00,33.0,25.0,29.95,ESE,114,12.0,20.0,72,0.00,,,0.00,,2013-03-25 08:52:00,
2013-03-25 09:02:00,33.0,25.0,29.95,SSE,160,13.0,24.0,72,0.00,,,0.00,,2013-03-25 09:02:00,
2013-03-25 09:11:00,33.0,25.0,29.95,SSE,160,13.0,24.0,72,0.00,,,0.00,,2013-03-25 09:11:00,
2013-03-25 09:22:00,34.0,26.0,29.95,SSE,149,8.0,20.0,72,0.00,,,0.00,,2013-03-25 09:22:00,
2013-03-25 09:32:00,34.0,26.0,29.95,SSE,149,8.0,20.0,72,0.00,,,0.00,,2013-03-25 09:32:00,
2013-03-25 09:42:00,34.0,26.0,29.95,SSE,149,8.0,20.0,72,0.00,,,0.00,,2013-03-25 09:42:00,
2013-03-25 09:51:00,34.0,26.0,29.94,SSE,152,10.0,17.0,72,0.00,,,0.00,,2013-03-25 09:51:00,
2013-03-25 09:52:00,34.0,26.0,29.95,SSE,149,8.0,20.0,72,0.00,,,0.00,,2013-03-25 09:52:00,
2013-03-25 10:02:00,34.0,26.0,29.94,SSE,153,12.0,24.0,72,0.00,,,0.00,,2013-03-25 10:02:00,
2013-03-25 10:12:00,34.0,26.0,29.94,SSE,153,12.0,24.0,72,0.00,,,0.00,,2013-03-25 10:12:00,
2013-03-25 10:22:00,34.0,26.0,29.94,SSE,152,10.0,17.0,72,0.00,,,0.00,,2013-03-25 10:22:00,
2013-03-25 10:32:00,34.0,26.0,29.94,SSE,152,10.0,17.0,72,0.00,,,0.00,,2013-03-25 10:32:00,
2013-03-25 10:41:00,34.0,26.0,29.94,SE,130,16.0,24.0,71,0.00,,,0.00,,2013-03-25 10:41:00,
2013-03-25 10:42:00,34.0,26.0,29.94,SSE,152,10.0,17.0,72,0.00,,,0.00,,2013-03-25 10:42:00,
2013-03-25 11:03:00,34.0,26.0,29.94,SE,130,16.0,24.0,71,0.00,,,0.00,,2013-03-25 11:03:00,
2013-03-25 11:12:00,34.0,26.0,29.94,SE,130,16.0,24.0,71,0.00,,,0.00,,2013-03-25 11:12:00,
2013-03-25 11:23:00,34.0,26.0,29.94,SE,130,16.0,24.0,71,0.00,,,0.00,,2013-03-25 11:23:00,
2013-03-25 11:32:00,34.0,26.0,29.94,SE,130,16.0,24.0,71,0.00,,,0.00,,2013-03-25 11:32:00,
2013-03-25 11:41:00,35.0,26.0,29.94,SE,146,12.0,20.0,70,0.00,,,0.00,,2013-03-25 11:41:00,
2013-03-25 11:52:00,35.0,26.0,29.94,ESE,121,14.0,22.0,70,0.00,,,0.00,,2013-03-25 11:52:00,
2013-03-25 12:02:00,35.0,26.0,29.94,SE,146,12.0,20.0,70,0.00,,,0.00,,2013-03-25 12:02:00,
2013-03-25 12:12:00,35.0,26.0,29.94,SE,146,12.0,20.0,70,0.00,,,0.00,,2013-03-25 12:12:00,
2013-03-25 12:22:00,35.0,26.0,29.94,SE,146,12.0,20.0,70,0.00,,,0.00,,2013-03-25 12:22:00,
2013-03-25 12:32:00,35.0,26.0,29.94,SE,146,12.0,20.0,70,0.00,,,0.00,,2013-03-25 12:32:00,
2013-03-25 12:53:00,34.0,26.0,29.93,SE,128,14.0,25.0,72,0.00,,,0.00,,2013-03-25 12:53:00,
2013-03-25 13:02:00,34.0,26.0,29.93,SE,128,14.0,25.0,72,0.00,,,0.00,,2013-03-25 13:02:00,
2013-03-25 13:12:00,34.0,26.0,29.93,SE,128,14.0,25.0,72,0.00,,,0.00,,2013-03-25 13:12:00,
2013-03-25 13:21:00,34.0,26.0,29.93,ESE,104,16.0,23.0,73,0.00,,,0.00,,2013-03-25 13:21:00,
2013-03-25 13:22:00,34.0,26.0,29.93,SE,129,8.0,22.0,73,0.00,,,0.00,,2013-03-25 13:22:00,
2013-03-25 13:31:00,34.0,26.0,29.93,ESE,118,8.0,20.0,73,0.00,,,0.00,,2013-03-25 13:31:00,
2013-03-25 13:43:00,34.0,26.0,29.93,ESE,118,8.0,20.0,73,0.00,,,0.00,,2013-03-25 13:43:00,
2013-03-25 13:52:00,34.0,26.0,29.93,ESE,104,16.0,23.0,73,0.00,,,0.00,,2013-03-25 13:52:00,
2013-03-25 14:02:00,34.0,26.0,29.93,ESE,104,16.0,23.0,73,0.00,,,0.00,,2013-03-25 14:02:00,
2013-03-25 14:12:00,34.0,26.0,29.93,ESE,104,16.0,23.0,73,0.00,,,0.00,,2013-03-25 14:12:00,
2013-03-25 14:32:00,34.0,27.0,29.92,SE,129,15.0,21.0,74,0.00,,,0.00,,2013-03-25 14:32:00,
2013-03-25 14:43:00,34.0,27.0,29.92,SE,129,15.0,21.0,74,0.00,,,0.00,,2013-03-25 14:43:00,
2013-03-25 14:53:00,34.0,27.0,29.92,SE,129,15.0,21.0,74,0.00,,,0.00,,2013-03-25 14:53:00,
2013-03-25 15:02:00,34.0,27.0,29.92,SE,129,15.0,21.0,74,0.00,,,0.00,,2013-03-25 15:02:00,
2013-03-25 15:23:00,34.0,26.0,29.92,ESE,119,13.0,22.0,72,0.00,,,0.00,,2013-03-25 15:23:00,
2013-03-25 15:33:00,34.0,26.0,29.92,ESE,119,13.0,22.0,72,0.00,,,0.00,,2013-03-25 15:33:00,
2013-03-25 15:43:00,34.0,26.0,29.92,ESE,119,13.0,22.0,72,0.00,,,0.00,,2013-03-25 15:43:00,
2013-03-25 15:53:00,34.0,26.0,29.91,ESE,121,9.0,24.0,71,0.00,,,0.00,,2013-03-25 15:53:00,
2013-03-25 16:02:00,34.0,25.0,29.91,ESE,123,12.0,26.0,70,0.00,,,0.00,,2013-03-25 16:02:00,
2013-03-25 16:12:00,34.0,25.0,29.91,ESE,123,12.0,26.0,70,0.00,,,0.00,,2013-03-25 16:12:00,
2013-03-25 16:22:00,34.0,25.0,29.91,ESE,123,12.0,26.0,70,0.00,,,0.00,,2013-03-25 16:22:00,
2013-03-25 16:32:00,34.0,25.0,29.91,ESE,116,16.0,24.0,70,0.00,,,0.00,,2013-03-25 16:32:00,
2013-03-25 16:42:00,34.0,25.0,29.91,ESE,116,16.0,24.0,70,0.00,,,0.00,,2013-03-25 16:42:00,
2013-03-25 16:52:00,34.0,26.0,29.91,SE,142,13.0,22.0,71,0.00,,,0.00,,2013-03-25 16:52:00,
2013-03-25 17:02:00,34.0,26.0,29.91,SE,146,14.0,20.0,71,0.00,,,0.00,,2013-03-25 17:02:00,
2013-03-25 17:11:00,34.0,26.0,29.91,SE,146,14.0,20.0,71,0.00,,,0.00,,2013-03-25 17:11:00,
2013-03-25 17:22:00,34.0,26.0,29.91,SE,142,10.0,21.0,71,0.00,,,0.00,,2013-03-25 17:22:00,
2013-03-25 17:31:00,34.0,26.0,29.91,SE,142,10.0,21.0,71,0.00,,,0.00,,2013-03-25 17:31:00,
2013-03-25 17:42:00,34.0,26.0,29.91,SE,142,10.0,21.0,71,0.00,,,0.00,,2013-03-25 17:42:00,
2013-03-25 17:52:00,34.0,26.0,29.91,SE,142,10.0,21.0,71,0.00,,,0.00,,2013-03-25 17:52:00,
2013-03-25 18:02:00,34.0,25.0,29.91,SE,129,13.0,22.0,70,0.00,,,0.00,,2013-03-25 18:02:00,
2013-03-25 18:12:00,34.0,25.0,29.91,SE,129,13.0,22.0,70,0.00,,,0.00,,2013-03-25 18:12:00,
2013-03-25 18:22:00,35.0,26.0,29.91,SE,133,9.0,17.0,70,0.00,,,0.00,,2013-03-25 18:22:00,
2013-03-25 18:32:00,35.0,26.0,29.91,SE,133,9.0,17.0,70,0.00,,,0.00,,2013-03-25 18:32:00,
2013-03-25 18:41:00,35.0,26.0,29.92,SE,131,14.0,20.0,69,0.00,,,0.00,,2013-03-25 18:41:00,
2013-03-25 18:42:00,35.0,26.0,29.91,SE,133,9.0,17.0,70,0.00,,,0.00,,2013-03-25 18:42:00,
2013-03-25 18:52:00,35.0,26.0,29.91,SE,133,9.0,17.0,70,0.00,,,0.00,,2013-03-25 18:52:00,
2013-03-25 19:02:00,35.0,26.0,29.92,SE,131,14.0,20.0,69,0.00,,,0.00,,2013-03-25 19:02:00,
2013-03-25 19:12:00,35.0,26.0,29.92,SE,131,14.0,20.0,69,0.00,,,0.00,,2013-03-25 19:12:00,
2013-03-25 19:21:00,35.0,26.0,29.91,ESE,121,9.0,20.0,70,0.00,,,0.00,,2013-03-25 19:21:00,
2013-03-25 19:22:00,35.0,26.0,29.92,SE,131,14.0,20.0,69,0.00,,,0.00,,2013-03-25 19:22:00,
2013-03-25 19:32:00,35.0,26.0,29.92,SE,131,14.0,20.0,69,0.00,,,0.00,,2013-03-25 19:32:00,
2013-03-25 19:52:00,35.0,26.0,29.91,ESE,121,9.0,20.0,70,0.00,,,0.00,,2013-03-25 19:52:00,
2013-03-25 20:02:00,35.0,26.0,29.91,ESE,121,9.0,20.0,70,0.00,,,0.00,,2013-03-25 20:02:00,
2013-03-25 20:12:00,35.0,26.0,29.91,ESE,121,9.0,20.0,70,0.00,,,0.00,,2013-03-25 20:12:00,
2013-03-25 20:32:00,34.0,26.0,29.92,ESE,107,7.0,20.0,72,0.00,,,0.00,,2013-03-25 20:32:00,
2013-03-25 20:41:00,34.0,26.0,29.91,ESE,123,7.0,17.0,72,0.00,,,0.00,,2013-03-25 20:41:00,
2013-03-25 20:42:00,34.0,26.0,29.92,ESE,107,7.0,20.0,72,0.00,,,0.00,,2013-03-25 20:42:00,
2013-03-25 20:52:00,34.0,26.0,29.91,ESE,110,9.0,16.0,71,0.00,,,0.00,,2013-03-25 20:52:00,
2013-03-25 21:02:00,34.0,26.0,29.91,ESE,123,7.0,17.0,72,0.00,,,0.00,,2013-03-25 21:02:00,
2013-03-25 21:11:00,34.0,26.0,29.91,ESE,123,7.0,17.0,72,0.00,,,0.00,,2013-03-25 21:11:00,
2013-03-25 21:22:00,34.0,26.0,29.91,ESE,123,7.0,17.0,72,0.00,,,0.00,,2013-03-25 21:22:00,
2013-03-25 21:32:00,34.0,26.0,29.91,ESE,123,7.0,17.0,72,0.00,,,0.00,,2013-03-25 21:32:00,
2013-03-25 22:03:00,34.0,26.0,29.91,SE,134,8.0,20.0,73,0.00,,,0.00,,2013-03-25 22:03:00,
2013-03-25 22:12:00,34.0,26.0,29.91,SE,134,8.0,20.0,73,0.00,,,0.00,,2013-03-25 22:12:00,
2013-03-25 22:23:00,34.0,27.0,29.91,ESE,118,9.0,17.0,74,0.00,,,0.00,,2013-03-25 22:23:00,
2013-03-25 22:32:00,34.0,27.0,29.91,East,85,8.0,14.0,74,0.00,,,0.00,,2013-03-25 22:32:00,
2013-03-25 22:42:00,34.0,27.0,29.91,East,85,8.0,14.0,74,0.00,,,0.00,,2013-03-25 22:42:00,
2013-03-25 22:52:00,34.0,27.0,29.90,East,97,6.0,15.0,74,0.00,,,0.00,,2013-03-25 22:52:00,
2013-03-25 23:02:00,34.0,27.0,29.90,SE,129,7.0,15.0,74,0.00,,,0.00,,2013-03-25 23:02:00,
2013-03-25 23:11:00,34.0,27.0,29.90,SE,129,7.0,15.0,74,0.00,,,0.00,,2013-03-25 23:11:00,
2013-03-25 23:22:00,34.0,27.0,29.90,ESE,104,7.0,14.0,74,0.00,,,0.00,,2013-03-25 23:22:00,
2013-03-25 23:31:00,34.0,27.0,29.90,East,84,5.0,17.0,74,0.00,,,0.00,,2013-03-25 23:31:00,
2013-03-25 23:42:00,34.0,27.0,29.90,East,84,5.0,17.0,74,0.00,,,0.00,,2013-03-25 23:42:00,
2013-03-25 23:52:00,34.0,27.0,29.90,East,84,5.0,17.0,74,0.00,,,0.00,,2013-03-25 23:52:00,